Terminal Aerodrome Forecast
Issued by NWS

Home | Current Version | Previous Version | Text Only | Print | Product List | Glossary On
Versions: 1 2 3 4 5 6 7 8 9 10 11 12
000
FTUS43 KIND 211100
TAFLAF
TAF
KLAF 211120Z 2112/2218 VRB03KT P6SM BKN200
     FM211500 22012KT P6SM SCT050 BKN150
     FM212000 24012KT P6SM OVC050
     FM220000 24007KT 6SM -SHRA VCTS OVC025CB
     FM220600 31009KT P6SM SCT025 BKN100=

USA.gov is the U.S. government's official web portal to all federal, state and local government web resources and services.